Flight Track Log - Related Links

Times and Time Zones

All times are in EDT time to prevent confusion due to time zone crossing. See the SWA706 flight status page for this flight to view local times or setup timezone preferences in your user account.

Time Position Orientation Groundspeed Altitude Reporting Facility
EDT Latitude Longitude Course Direction KTS MPH feet Rate Location/Type
Sat 09:27:24 AM 39.1833 -76.7500 284° West 185 213 2,900  Level Potomac TRACON
Sat 09:28:24 AM 39.2000 -76.8333 284° West 235 270 5,400 3,050 Climbing Potomac TRACON
Sat 09:29:24 AM 39.2167 -76.9167 284° West 255 293 9,000 3,174 Climbing Potomac TRACON
Sat 09:30:25 AM 39.2167 -77.0167 270° West 279 321 11,800 2,678 Climbing Potomac TRACON
Sat 09:31:25 AM 39.2167 -77.1333 270° West 327 376 14,400 2,500 Climbing Potomac TRACON
Sat 09:32:25 AM 39.1500 -77.2167 224° Southwest 355 409 16,800 2,650 Climbing Potomac TRACON
Sat 09:33:25 AM 39.0667 -77.2833 212° Southwest 368 423 19,700 2,700 Climbing Potomac TRACON
Sat 09:34:25 AM 38.9667 -77.3500 207° Southwest 392 451 22,200 1,650 Climbing Potomac TRACON
Sat 09:35:25 AM 38.8667 -77.4167 207° Southwest 399 459 23,000 400 Climbing Potomac TRACON
Sat 09:36:25 AM 38.7833 -77.4833 212° Southwest 388 447 23,000  Level Potomac TRACON
Sat 09:38:10 AM 38.6381 -77.6011 212° Southwest 393 452 23,000 800 Level Washington Center
Sat 09:39:10 AM 38.5469 -77.6914 218° Southwest 393 452 25,200 2,033 Climbing Washington Center
Sat 09:40:11 AM 38.4722 -77.7928 227° Southwest 393 452 27,100 1,884 Climbing Washington Center
Sat 09:41:11 AM 38.4094 -77.9128 236° Southwest 393 452 29,000 2,500 Climbing Washington Center
Sat 09:42:11 AM 38.3531 -78.0250 237° Southwest 393 452 32,100 2,479 Climbing Washington Center
Sat 09:43:12 AM 38.2967 -78.1289 235° Southwest 381 438 34,000 942 Climbing Washington Center
Sat 09:44:12 AM 38.2400 -78.2381 237° Southwest 381 438 34,000  Level Washington Center
Sat 09:45:10 AM 38.1833 -78.3469 237° Southwest 376 433 34,000  Level Washington Center
Sat 09:46:10 AM 38.1267 -78.4531 236° Southwest 371 427 34,000  Level Washington Center
Sat 09:47:11 AM 38.0861 -78.5756 247° West 354 407 34,000  Level Washington Center
Sat 09:48:11 AM 38.0478 -78.6875 247° West 354 407 34,000  Level Washington Center
Sat 09:49:12 AM 38.0094 -78.8044 247° West 354 407 34,000  Level Washington Center
Sat 09:50:12 AM 37.9686 -78.9186 246° West 354 407 34,000  Level Washington Center
Sat 09:51:12 AM 37.9344 -79.0225 247° West 354 407 34,000  Level Washington Center
Sat 09:52:10 AM 37.8917 -79.1336 244° Southwest 354 407 34,000 508 Level Washington Center
Sat 09:53:10 AM 37.8383 -79.2417 238° Southwest 359 413 35,000 1,000 Climbing Washington Center
Sat 09:54:10 AM 37.7828 -79.3544 238° Southwest 359 413 36,000 595 Climbing Washington Center
Sat 09:55:11 AM 37.7314 -79.4569 238° Southwest 354 407 36,200 595 Climbing Washington Center
Sat 09:56:11 AM 37.6825 -79.5489 236° Southwest 359 413 37,200 843 Climbing Washington Center
Sat 09:57:12 AM 37.6244 -79.6664 238° Southwest 359 413 37,900 403 Climbing Washington Center
Sat 09:58:10 AM 37.5814 -79.7639 241° Southwest 359 413 38,000 50 Climbing Washington Center
Sat 09:59:11 AM 37.5536 -79.8958 255° West 368 423 38,000  Level Washington Center
Sat 10:00:11 AM 37.5261 -80.0253 255° West 373 429 38,000  Level Washington Center
Sat 10:01:11 AM 37.4842 -80.1433 246° West 373 429 38,000  Level Washington Center
Sat 10:03:22 AM 37.3392 -80.3453 228° Southwest 380 437 38,000  Level Atlanta Center
Sat 10:04:22 AM 37.2733 -80.4450 230° Southwest 375 432 38,000  Level Atlanta Center
Sat 10:05:22 AM 37.2033 -80.5419 228° Southwest 375 432 38,000  Level Atlanta Center
Sat 10:06:22 AM 37.1292 -80.6519 230° Southwest 375 432 38,000  Level Atlanta Center
Sat 10:07:22 AM 37.0675 -80.7536 233° Southwest 375 432 38,000  Level Atlanta Center
Sat 10:08:22 AM 37.0119 -80.8625 237° Southwest 375 432 38,000  Level Atlanta Center
Sat 10:09:22 AM 36.9583 -80.9683 238° Southwest 375 432 38,000  Level Atlanta Center
Sat 10:10:22 AM 36.9086 -81.0664 238° Southwest 375 432 38,000  Level Atlanta Center
Sat 10:11:22 AM 36.8547 -81.1722 238° Southwest 375 432 38,000  Level Atlanta Center
Sat 10:12:22 AM 36.7989 -81.2781 237° Southwest 375 432 38,000  Level Atlanta Center
Sat 10:13:22 AM 36.7472 -81.3911 240° Southwest 366 421 38,000  Level Atlanta Center
Sat 10:14:22 AM 36.6931 -81.4964 237° Southwest 366 421 38,000  Level Atlanta Center
Sat 10:15:22 AM 36.6408 -81.5886 235° Southwest 366 421 38,000  Level Atlanta Center
Sat 10:16:22 AM 36.5886 -81.6936 238° Southwest 366 421 38,000  Level Atlanta Center
Sat 10:17:22 AM 36.5342 -81.7936 236° Southwest 359 413 38,000  Level Atlanta Center
Sat 10:18:22 AM 36.4817 -81.8983 238° Southwest 354 407 38,000  Level Atlanta Center
Sat 10:19:22 AM 36.4272 -82.0003 236° Southwest 354 407 38,000  Level Atlanta Center
Sat 10:20:22 AM 36.3744 -82.0969 236° Southwest 354 407 38,000  Level Atlanta Center
Sat 10:21:22 AM 36.3219 -82.1989 237° Southwest 354 407 38,000  Level Atlanta Center
Sat 10:22:22 AM 36.2650 -82.3083 237° Southwest 354 407 38,000  Level Atlanta Center
Sat 10:23:22 AM 36.2122 -82.4072 237° Southwest 354 407 38,000  Level Atlanta Center
Sat 10:24:22 AM 36.1592 -82.5033 236° Southwest 349 402 38,000  Level Atlanta Center
Sat 10:25:22 AM 36.1103 -82.5969 237° Southwest 349 402 38,000  Level Atlanta Center
Sat 10:26:22 AM 36.0592 -82.6903 236° Southwest 344 396 38,000  Level Atlanta Center
Sat 10:27:22 AM 36.0103 -82.7861 238° Southwest 339 390 38,000  Level Atlanta Center
Sat 10:28:22 AM 35.9611 -82.8767 236° Southwest 332 382 38,000  Level Atlanta Center
Sat 10:29:22 AM 35.9117 -82.9697 237° Southwest 326 375 38,000  Level Atlanta Center
Sat 10:30:22 AM 35.8644 -83.0572 236° Southwest 326 375 38,000  Level Atlanta Center
Sat 10:31:22 AM 35.8153 -83.1475 236° Southwest 326 375 38,000  Level Atlanta Center
Sat 10:32:22 AM 35.7658 -83.2378 236° Southwest 326 375 38,000  Level Atlanta Center
Sat 10:33:22 AM 35.7183 -83.3303 238° Southwest 326 375 38,000  Level Atlanta Center
Sat 10:34:22 AM 35.6769 -83.4047 236° Southwest 326 375 38,000  Level Atlanta Center
Sat 10:35:22 AM 35.6233 -83.5047 237° Southwest 326 375 38,000  Level Atlanta Center
Sat 10:36:22 AM 35.5714 -83.5969 235° Southwest 326 375 38,000  Level Atlanta Center
Sat 10:37:22 AM 35.5217 -83.6892 236° Southwest 326 375 38,000  Level Atlanta Center
Sat 10:38:22 AM 35.4697 -83.7836 236° Southwest 326 375 38,000  Level Atlanta Center
Sat 10:39:22 AM 35.4197 -83.8756 236° Southwest 326 375 38,000  Level Atlanta Center
Sat 10:40:22 AM 35.3678 -83.9675 235° Southwest 326 375 38,000  Level Atlanta Center
Sat 10:41:22 AM 35.3136 -84.0592 234° Southwest 326 375 38,000  Level Atlanta Center
Sat 10:42:22 AM 35.2656 -84.1558 239° Southwest 326 375 38,000  Level Atlanta Center
Sat 10:43:22 AM 35.2236 -84.2550 243° Southwest 326 375 38,000  Level Atlanta Center
Sat 10:44:22 AM 35.1817 -84.3539 243° Southwest 326 375 38,000  Level Atlanta Center
Sat 10:45:22 AM 35.1375 -84.4528 241° Southwest 326 375 38,000  Level Atlanta Center
Sat 10:46:22 AM 35.0975 -84.5489 243° Southwest 326 375 38,000  Level Atlanta Center
Sat 10:47:22 AM 35.0553 -84.6478 242° Southwest 326 375 38,000  Level Atlanta Center
Sat 10:48:22 AM 35.0111 -84.7464 241° Southwest 326 375 38,000  Level Atlanta Center
Sat 10:49:22 AM 34.9686 -84.8447 242° Southwest 332 382 38,000  Level Atlanta Center
Sat 10:50:22 AM 34.9264 -84.9431 242° Southwest 327 376 38,000  Level Atlanta Center
Sat 10:51:22 AM 34.8817 -85.0439 242° Southwest 332 382 38,000  Level Atlanta Center
Sat 10:52:22 AM 34.8369 -85.1447 242° Southwest 332 382 38,000  Level Atlanta Center
Sat 10:53:22 AM 34.7944 -85.2453 243° Southwest 337 388 38,000  Level Atlanta Center
Sat 10:54:22 AM 34.7517 -85.3433 242° Southwest 337 388 38,000  Level Atlanta Center
Sat 10:55:22 AM 34.7067 -85.4436 241° Southwest 337 388 38,000  Level Atlanta Center
Sat 10:56:22 AM 34.6636 -85.5439 242° Southwest 337 388 38,000  Level Atlanta Center
Sat 10:57:22 AM 34.6186 -85.6417 241° Southwest 337 388 38,000 500 Level Atlanta Center
Sat 10:58:22 AM 34.5736 -85.7417 241° Southwest 337 388 39,000 1,000 Climbing Atlanta Center
Sat 10:59:22 AM 34.5281 -85.8467 242° Southwest 337 388 40,000 500 Climbing Atlanta Center
Sat 11:00:22 AM 34.4828 -85.9439 241° Southwest 332 382 40,000  Level Atlanta Center
Sat 11:01:22 AM 34.4394 -86.0436 242° Southwest 332 382 40,000  Level Atlanta Center
Sat 11:02:22 AM 34.3942 -86.1433 241° Southwest 332 382 40,000  Level Atlanta Center
Sat 11:03:22 AM 34.3506 -86.2378 241° Southwest 326 375 40,000  Level Atlanta Center
Sat 11:04:22 AM 34.3050 -86.3347 240° Southwest 332 382 40,000  Level Atlanta Center
Sat 11:05:22 AM 34.2614 -86.4317 241° Southwest 332 382 40,000  Level Atlanta Center
Sat 11:06:22 AM 34.2178 -86.5308 242° Southwest 332 382 40,000  Level Atlanta Center
Sat 11:07:22 AM 34.1742 -86.6275 241° Southwest 332 382 40,000  Level Atlanta Center
Sat 11:08:22 AM 34.1281 -86.7239 240° Southwest 332 382 40,000  Level Atlanta Center
Sat 11:09:22 AM 34.0842 -86.8203 241° Southwest 332 382 40,000  Level Atlanta Center
Sat 11:10:22 AM 34.0403 -86.9167 241° Southwest 332 382 40,000  Level Atlanta Center
Sat 11:11:56 AM 33.9686 -87.0736 241° Southwest 325 374 40,000  Level Memphis Center
Sat 11:12:56 AM 33.9231 -87.1656 239° Southwest 331 381 40,000  Level Memphis Center
Sat 11:13:56 AM 33.8833 -87.2544 242° Southwest 339 390 40,000  Level Memphis Center
Sat 11:14:56 AM 33.8400 -87.3511 242° Southwest 332 382 40,000  Level Memphis Center
Sat 11:15:56 AM 33.7922 -87.4528 241° Southwest 332 382 40,000  Level Memphis Center
Sat 11:16:56 AM 33.7483 -87.5442 240° Southwest 339 390 40,000  Level Memphis Center
Sat 11:17:56 AM 33.7025 -87.6406 240° Southwest 339 390 40,000  Level Memphis Center
Sat 11:18:56 AM 33.6567 -87.7369 240° Southwest 339 390 40,000  Level Memphis Center
Sat 11:19:56 AM 33.6128 -87.8328 241° Southwest 339 390 40,000  Level Memphis Center
Sat 11:20:56 AM 33.5644 -87.9317 240° Southwest 339 390 40,000  Level Memphis Center
Sat 11:21:56 AM 33.5183 -88.0300 241° Southwest 339 390 40,000  Level Memphis Center
Sat 11:22:56 AM 33.4742 -88.1258 241° Southwest 339 390 40,000  Level Memphis Center
Sat 11:23:56 AM 33.4322 -88.2214 242° Southwest 339 390 40,000  Level Memphis Center
Sat 11:24:56 AM 33.3836 -88.3172 239° Southwest 339 390 40,000  Level Memphis Center
Sat 11:25:56 AM 33.3392 -88.4103 240° Southwest 339 390 40,000  Level Memphis Center
Sat 11:26:56 AM 33.2967 -88.5006 241° Southwest 333 383 40,000  Level Memphis Center
Sat 11:27:56 AM 33.2522 -88.5958 241° Southwest 333 383 40,000  Level Memphis Center
Sat 11:28:56 AM 33.2075 -88.6864 239° Southwest 333 383 40,000  Level Memphis Center
Sat 11:29:56 AM 33.1628 -88.7764 239° Southwest 328 377 40,000  Level Memphis Center
Sat 11:30:57 AM 33.1181 -88.8667 239° Southwest 323 372 40,000  Level Memphis Center
Sat 11:31:56 AM 33.0731 -88.9592 240° Southwest 323 372 40,000  Level Memphis Center
Sat 11:32:56 AM 33.0283 -89.0514 240° Southwest 323 372 40,000  Level Memphis Center
Sat 11:33:56 AM 32.9833 -89.1411 239° Southwest 323 372 40,000  Level Memphis Center
Sat 11:34:56 AM 32.9381 -89.2336 240° Southwest 323 372 40,000  Level Memphis Center
Sat 11:35:56 AM 32.8931 -89.3256 240° Southwest 323 372 40,000  Level Memphis Center
Sat 11:36:56 AM 32.8458 -89.4153 238° Southwest 323 372 40,000 -150 Level Memphis Center
Sat 11:37:56 AM 32.8006 -89.5094 240° Southwest 323 372 39,700 -400 Descending Memphis Center
Sat 11:38:56 AM 32.7531 -89.6014 238° Southwest 323 372 39,200 -300 Descending Memphis Center
Sat 11:39:56 AM 32.7078 -89.6956 240° Southwest 328 377 39,100 -100 Descending Memphis Center
Sat 11:40:56 AM 32.6622 -89.7872 239° Southwest 328 377 39,000 -50 Descending Memphis Center
Sat 11:41:56 AM 32.6147 -89.8814 239° Southwest 328 377 39,000  Level Memphis Center
Sat 11:42:56 AM 32.5689 -89.9728 239° Southwest 328 377 39,000  Level Memphis Center
Sat 11:43:56 AM 32.5233 -90.0642 239° Southwest 328 377 39,000  Level Memphis Center
Sat 11:44:56 AM 32.4775 -90.1531 239° Southwest 328 377 39,000  Level Memphis Center
Sat 11:45:56 AM 32.4317 -90.2417 239° Southwest 328 377 39,000  Level Memphis Center
Sat 11:46:56 AM 32.3881 -90.3303 240° Southwest 323 372 39,000  Level Memphis Center
Sat 11:47:56 AM 32.3442 -90.4189 240° Southwest 323 372 39,000  Level Memphis Center
Sat 11:48:56 AM 32.2981 -90.5097 239° Southwest 323 372 39,000  Level Memphis Center
Sat 11:49:56 AM 32.2542 -90.5956 239° Southwest 318 366 39,000  Level Memphis Center
Sat 11:50:56 AM 32.2058 -90.6864 238° Southwest 318 366 39,000  Level Memphis Center
Sat 11:53:21 AM 32.0936 -90.9106 239° Southwest 324 373 39,000  Level Houston Center
Sat 11:54:23 AM 32.0433 -91.0061 238° Southwest 327 376 39,000  Level Houston Center
Sat 11:55:24 AM 32.0000 -91.0942 240° Southwest 328 377 39,000  Level Houston Center
Sat 11:56:26 AM 31.9511 -91.1839 237° Southwest 325 374 39,000  Level Houston Center
Sat 11:57:28 AM 31.9044 -91.2747 239° Southwest 325 374 39,000  Level Houston Center
Sat 11:58:29 AM 31.8569 -91.3658 238° Southwest 327 376 39,000  Level Houston Center
Sat 11:59:31 AM 31.7992 -91.4744 238° Southwest 323 372 39,000  Level Houston Center
Sat 12:00:33 PM 31.7528 -91.5644 239° Southwest 320 368 39,000  Level Houston Center
Sat 12:01:34 PM 31.7067 -91.6528 238° Southwest 316 364 39,000  Level Houston Center
Sat 12:02:36 PM 31.6600 -91.7408 238° Southwest 314 361 39,000  Level Houston Center
Sat 12:03:38 PM 31.6147 -91.8289 239° Southwest 314 361 39,000  Level Houston Center
Sat 12:04:39 PM 31.5678 -91.9169 238° Southwest 316 364 39,000  Level Houston Center
Sat 12:05:41 PM 31.5214 -92.0050 238° Southwest 316 364 39,000  Level Houston Center
Sat 12:06:43 PM 31.4719 -92.0964 238° Southwest 316 364 39,000  Level Houston Center
Sat 12:07:44 PM 31.4247 -92.1850 238° Southwest 321 369 39,000  Level Houston Center
Sat 12:08:46 PM 31.3686 -92.2906 238° Southwest 318 366 39,000  Level Houston Center
Sat 12:09:48 PM 31.3206 -92.3794 238° Southwest 323 372 39,000  Level Houston Center
Sat 12:10:49 PM 31.2728 -92.4672 238° Southwest 324 373 39,000  Level Houston Center
Sat 12:11:51 PM 31.2336 -92.5572 243° Southwest 315 362 39,000  Level Houston Center
Sat 12:12:53 PM 31.2442 -92.6608 277° West 329 379 39,000  Level Houston Center
Sat 12:13:54 PM 31.2603 -92.7644 280° West 324 373 39,000  Level Houston Center
Sat 12:14:56 PM 31.2764 -92.8658 281° West 320 368 39,000  Level Houston Center
Sat 12:15:57 PM 31.2936 -92.9872 279° West 319 367 39,000 -341 Level Houston Center
Sat 12:16:59 PM 31.2486 -93.0750 239° Southwest 320 368 38,300 -774 Descending Houston Center
Sat 12:18:01 PM 31.2014 -93.1672 239° Southwest 329 379 37,400 -927 Descending Houston Center
Sat 12:19:02 PM 31.1536 -93.2611 239° Southwest 337 388 36,400 -927 Descending Houston Center
Sat 12:20:04 PM 31.1039 -93.3578 239° Southwest 347 399 35,500 -919 Descending Houston Center
Sat 12:21:06 PM 31.0531 -93.4553 239° Southwest 353 406 34,500 -927 Descending Houston Center
Sat 12:22:07 PM 31.0367 -93.5689 260° West 363 418 33,600 -1,024 Descending Houston Center
Sat 12:23:09 PM 30.9911 -93.6975 248° West 374 430 32,400 -1,065 Descending Houston Center
Sat 12:24:11 PM 30.9339 -93.7928 235° Southwest 363 418 31,400 -976 Descending Houston Center
Sat 12:25:12 PM 30.8783 -93.8861 235° Southwest 355 409 30,400 -976 Descending Houston Center
Sat 12:26:14 PM 30.8219 -93.9800 235° Southwest 354 407 29,400 -1,016 Descending Houston Center
Sat 12:27:16 PM 30.7664 -94.0708 235° Southwest 348 400 28,300 -1,024 Descending Houston Center
Sat 12:28:17 PM 30.7119 -94.1617 235° Southwest 345 397 27,300 -1,268 Descending Houston Center
Sat 12:29:19 PM 30.6464 -94.2700 235° Southwest 344 396 25,700 -1,805 Descending Houston Center
Sat 12:30:20 PM 30.5911 -94.3614 235° Southwest 336 387 23,600 -2,000 Descending Houston Center
Sat 12:31:22 PM 30.5414 -94.4433 235° Southwest 334 384 21,600 -2,082 Descending Houston Center
Sat 12:31:58 PM 30.5042 -94.5039 235° Southwest 329 379 20,200 -2,032 Descending Houston Center
Sat 12:32:24 PM 30.4867 -94.5322 234° Southwest 331 381 19,500 -1,929 Descending Houston Center
Sat 12:32:54 PM 30.4531 -94.5833 233° Southwest 335 386 18,400 -1,742 Descending Houston Center
Sat 12:33:26 PM 30.4311 -94.6164 232° Southwest 336 387 17,700 -2,100 Descending Houston Center
Sat 12:33:54 PM 30.3964 -94.6706 233° Southwest 336 387 16,300 -2,129 Descending Houston Center
Sat 12:34:28 PM 30.3750 -94.7017 231° Southwest 335 386 15,500 -2,129 Descending Houston Center
Sat 12:34:56 PM 30.3397 -94.7603 235° Southwest 338 389 14,100 -2,262 Descending Houston Center
Sat 12:35:29 PM 30.3194 -94.7900 232° Southwest 337 388 13,200 -1,433 Descending Houston Center
Sat 12:36:03 PM 30.2775 -94.8553 233° Southwest 330 380 12,500 -1,161 Descending Houston Center
Sat 12:36:31 PM 30.2544 -94.8908 233° Southwest 331 381 12,000 -1,082 Descending Houston Center
Sat 12:37:04 PM 30.2225 -94.9394 233° Southwest 318 366 11,400 -968 Descending Houston Center
Sat 12:37:33 PM 30.2019 -94.9722 234° Southwest 322 371 11,000 -1,082 Descending Houston Center
Sat 12:38:05 PM 30.1711 -95.0208 234° Southwest 308 354 10,300 -968 Descending Houston Center
Sat 12:38:35 PM 30.1508 -95.0486 230° Southwest 310 357 10,000 -295 Descending Houston Center
Sat 12:39:06 PM 30.1136 -95.0789 215° Southwest 273 314 10,000  Level Houston Center
Sat 12:39:36 PM 30.0844 -95.0931 203° Southwest 295 339 10,000  Level Houston Center
Sat 12:40:07 PM 30.0308 -95.1156 200° South 316 364 10,000  Level Houston Center
Sat 12:40:38 PM 30.0039 -95.1275 201° Southwest 308 354 10,000  Level Houston Center
Sat 12:41:03 PM 29.9542 -95.1492 201° Southwest 311 358 10,000  Level Houston Center
Sat 12:41:40 PM 29.9222 -95.1625 200° South 312 359 10,000  Level Houston Center
Sat 12:42:04 PM 29.8714 -95.1833 200° South 312 359 10,000 -290 Level Houston Center
Sat 12:42:42 PM 29.8281 -95.2031 202° Southwest 305 351 9,700 -985 Descending Houston Center
Sat 12:43:11 PM 29.7925 -95.2172 199° South 277 319 8,900 -1,574 Descending Houston Center
Sat 12:43:43 PM 29.7578 -95.2319 200° South 275 316 8,100 -1,745 Descending Houston Center
Sat 12:44:06 PM 29.7225 -95.2328 181° South 285 328 7,300 -1,742 Descending Houston Center
Sat 12:44:45 PM 29.6772 -95.2356 183° South 291 335 6,300 -1,279 Descending Houston Center
Sat 12:45:07 PM 29.6408 -95.2356 180° South 293 337 6,000 -387 Descending Houston Center
Sat 12:45:47 PM 29.5992 -95.2378 183° South 292 336 5,900 -1,082 Descending Houston Center
Sat 12:46:08 PM 29.5578 -95.2433 187° South 277 319 4,900 -1,770 Descending Houston Center
Sat 12:46:48 PM 29.5239 -95.2794 223° Southwest 258 297 4,100 -1,258 Descending Houston Center
Sat 12:47:10 PM 29.5061 -95.3000 225° Southwest 250 288 3,600 -1,065 Descending Houston Center
Sat 12:47:50 PM 29.4731 -95.3350 223° Southwest 254 292 3,000 -353 Descending Houston Center
Sat 12:48:52 PM 29.4958 -95.3744 304° West 202 232 3,000 -205 Level Houston Center
Sat 12:49:18 PM 29.5189 -95.3681 14° North 161 185 2,700 -871 Descending Houston Center
Sat 12:49:54 PM 29.5414 -95.3628 12° North 174 200 2,100 -804 Descending Houston Center
Sat 12:50:55 PM 29.5850 -95.3475 17° North 167 192 1,400 -698 Descending Houston Center
Sat 12:51:20 PM 29.5992 -95.3294 48° Northeast 153 176 1,100 -677 Descending Houston Center
Sat 12:51:57 PM 29.6144 -95.3136 42° Northeast 156 180 700 -787 Descending Houston Center
Sat 12:52:21 PM 29.6278 -95.2972 47° Northeast 133 153 300 -1,000 Descending Houston Center

Login

Don't have an account? Register now (free) for customized features, flight alerts, and more!